sensor_id;sensor_type;location;lat;lon;timestamp;pressure;altitude;pressure_sealevel;temperature;humidity
19526;BME280;9907;42.676;26.348;2023-03-05T00:01:07;98473.00;;;7.11;100.00
19526;BME280;9907;42.676;26.348;2023-03-05T00:03:36;98475.19;;;7.27;100.00
19526;BME280;9907;42.676;26.348;2023-03-05T00:06:02;98464.84;;;7.54;100.00
19526;BME280;9907;42.676;26.348;2023-03-05T00:08:28;98470.44;;;7.51;100.00
19526;BME280;9907;42.676;26.348;2023-03-05T00:10:58;98476.06;;;7.58;100.00
19526;BME280;9907;42.676;26.348;2023-03-05T00:13:25;98476.88;;;7.07;100.00
19526;BME280;9907;42.676;26.348;2023-03-05T00:15:51;98466.69;;;6.92;100.00
19526;BME280;9907;42.676;26.348;2023-03-05T00:18:17;98479.22;;;7.01;100.00
19526;BME280;9907;42.676;26.348;2023-03-05T00:20:43;98471.78;;;6.95;100.00
19526;BME280;9907;42.676;26.348;2023-03-05T00:23:08;98473.81;;;6.91;100.00
19526;BME280;9907;42.676;26.348;2023-03-05T00:25:35;98478.75;;;6.96;100.00
19526;BME280;9907;42.676;26.348;2023-03-05T00:28:01;98478.94;;;6.83;100.00
19526;BME280;9907;42.676;26.348;2023-03-05T00:30:26;98476.66;;;6.78;100.00
19526;BME280;9907;42.676;26.348;2023-03-05T00:32:52;98471.94;;;6.82;100.00
19526;BME280;9907;42.676;26.348;2023-03-05T00:35:18;98463.25;;;6.80;100.00
19526;BME280;9907;42.676;26.348;2023-03-05T00:37:43;98466.50;;;6.83;100.00
19526;BME280;9907;42.676;26.348;2023-03-05T00:40:09;98471.69;;;6.85;100.00
19526;BME280;9907;42.676;26.348;2023-03-05T00:42:35;98472.19;;;6.79;100.00
19526;BME280;9907;42.676;26.348;2023-03-05T00:45:04;98470.56;;;6.67;100.00
19526;BME280;9907;42.676;26.348;2023-03-05T00:47:30;98481.06;;;6.68;100.00
19526;BME280;9907;42.676;26.348;2023-03-05T00:49:56;98476.66;;;6.78;100.00
19526;BME280;9907;42.676;26.348;2023-03-05T00:52:21;98471.66;;;6.64;100.00
19526;BME280;9907;42.676;26.348;2023-03-05T00:54:47;98476.50;;;6.59;100.00
19526;BME280;9907;42.676;26.348;2023-03-05T00:57:13;98472.53;;;6.54;100.00
19526;BME280;9907;42.676;26.348;2023-03-05T00:59:39;98474.13;;;6.45;100.00
19526;BME280;9907;42.676;26.348;2023-03-05T01:02:04;98478.47;;;6.46;100.00
19526;BME280;9907;42.676;26.348;2023-03-05T01:04:30;98478.50;;;6.67;100.00
19526;BME280;9907;42.676;26.348;2023-03-05T01:06:55;98479.63;;;6.85;100.00
19526;BME280;9907;42.676;26.348;2023-03-05T01:09:21;98471.56;;;6.87;100.00
19526;BME280;9907;42.676;26.348;2023-03-05T01:11:49;98474.59;;;6.82;100.00
19526;BME280;9907;42.676;26.348;2023-03-05T01:14:19;98482.59;;;6.71;100.00
19526;BME280;9907;42.676;26.348;2023-03-05T01:16:45;98488.28;;;6.66;100.00
19526;BME280;9907;42.676;26.348;2023-03-05T01:19:12;98478.03;;;6.62;100.00
19526;BME280;9907;42.676;26.348;2023-03-05T01:21:43;98483.75;;;6.57;100.00
19526;BME280;9907;42.676;26.348;2023-03-05T01:24:09;98484.19;;;6.62;100.00
19526;BME280;9907;42.676;26.348;2023-03-05T01:26:34;98476.13;;;6.64;100.00
19526;BME280;9907;42.676;26.348;2023-03-05T01:29:00;98475.53;;;6.60;100.00
19526;BME280;9907;42.676;26.348;2023-03-05T01:31:26;98475.44;;;6.82;100.00
19526;BME280;9907;42.676;26.348;2023-03-05T01:33:52;98463.91;;;6.93;100.00
19526;BME280;9907;42.676;26.348;2023-03-05T01:36:18;98465.63;;;6.94;100.00
19526;BME280;9907;42.676;26.348;2023-03-05T01:38:45;98471.56;;;6.87;100.00
19526;BME280;9907;42.676;26.348;2023-03-05T01:41:13;98472.06;;;6.80;100.00
19526;BME280;9907;42.676;26.348;2023-03-05T01:43:39;98464.13;;;6.69;100.00
19526;BME280;9907;42.676;26.348;2023-03-05T01:46:25;98466.78;;;6.69;100.00
19526;BME280;9907;42.676;26.348;2023-03-05T01:57:08;98464.88;;;6.71;100.00
19526;BME280;9907;42.676;26.348;2023-03-05T01:59:37;98465.63;;;6.62;100.00
19526;BME280;9907;42.676;26.348;2023-03-05T02:02:04;98466.78;;;6.69;100.00
19526;BME280;9907;42.676;26.348;2023-03-05T02:04:39;98469.75;;;6.55;100.00
19526;BME280;9907;42.676;26.348;2023-03-05T02:07:08;98473.84;;;6.59;100.00
19526;BME280;9907;42.676;26.348;2023-03-05T02:09:37;98468.31;;;6.51;100.00
19526;BME280;9907;42.676;26.348;2023-03-05T02:12:03;98464.94;;;6.49;100.00
19526;BME280;9907;42.676;26.348;2023-03-05T02:14:29;98457.28;;;6.35;100.00
19526;BME280;9907;42.676;26.348;2023-03-05T02:16:54;98453.66;;;6.25;100.00
19526;BME280;9907;42.676;26.348;2023-03-05T02:19:20;98464.09;;;6.17;100.00
19526;BME280;9907;42.676;26.348;2023-03-05T02:21:47;98456.25;;;6.15;100.00
19526;BME280;9907;42.676;26.348;2023-03-05T02:24:33;98461.53;;;6.15;100.00
19526;BME280;9907;42.676;26.348;2023-03-05T02:26:59;98465.50;;;6.10;100.00
19526;BME280;9907;42.676;26.348;2023-03-05T02:29:26;98457.69;;;6.19;100.00
19526;BME280;9907;42.676;26.348;2023-03-05T02:31:54;98453.94;;;6.11;100.00
19526;BME280;9907;42.676;26.348;2023-03-05T02:34:21;98459.00;;;6.14;100.00
19526;BME280;9907;42.676;26.348;2023-03-05T02:36:47;98460.44;;;6.18;100.00
19526;BME280;9907;42.676;26.348;2023-03-05T02:39:15;98456.34;;;6.14;100.00
19526;BME280;9907;42.676;26.348;2023-03-05T02:41:43;98455.78;;;5.99;100.00
19526;BME280;9907;42.676;26.348;2023-03-05T02:44:09;98458.06;;;5.93;100.00
19526;BME280;9907;42.676;26.348;2023-03-05T02:46:34;98452.75;;;5.81;100.00
19526;BME280;9907;42.676;26.348;2023-03-05T02:49:02;98447.19;;;5.84;100.00
19526;BME280;9907;42.676;26.348;2023-03-05T02:51:30;98439.53;;;5.93;100.00
19526;BME280;9907;42.676;26.348;2023-03-05T02:53:59;98439.84;;;6.10;100.00
19526;BME280;9907;42.676;26.348;2023-03-05T02:56:25;98447.44;;;5.81;100.00
19526;BME280;9907;42.676;26.348;2023-03-05T02:58:50;98443.84;;;5.82;100.00
19526;BME280;9907;42.676;26.348;2023-03-05T03:01:16;98443.31;;;6.22;100.00
19526;BME280;9907;42.676;26.348;2023-03-05T03:03:41;98445.41;;;6.07;100.00
19526;BME280;9907;42.676;26.348;2023-03-05T03:06:10;98447.69;;;6.12;100.00
19526;BME280;9907;42.676;26.348;2023-03-05T03:08:35;98432.84;;;6.20;100.00
19526;BME280;9907;42.676;26.348;2023-03-05T03:11:10;98445.03;;;6.12;100.00
19526;BME280;9907;42.676;26.348;2023-03-05T03:13:39;98441.91;;;6.07;100.00
19526;BME280;9907;42.676;26.348;2023-03-05T03:16:12;98445.06;;;5.90;100.00
19526;BME280;9907;42.676;26.348;2023-03-05T03:18:38;98433.94;;;5.84;100.00
19526;BME280;9907;42.676;26.348;2023-03-05T03:21:04;98445.16;;;5.77;100.00
19526;BME280;9907;42.676;26.348;2023-03-05T03:23:30;98431.31;;;5.73;100.00
19526;BME280;9907;42.676;26.348;2023-03-05T03:25:56;98435.41;;;5.77;100.00
19526;BME280;9907;42.676;26.348;2023-03-05T03:28:22;98432.06;;;5.98;100.00
19526;BME280;9907;42.676;26.348;2023-03-05T03:30:48;98426.50;;;5.78;100.00
19526;BME280;9907;42.676;26.348;2023-03-05T03:33:13;98435.56;;;5.65;100.00
19526;BME280;9907;42.676;26.348;2023-03-05T03:35:39;98427.47;;;5.55;100.00
19526;BME280;9907;42.676;26.348;2023-03-05T03:38:04;98423.03;;;5.45;100.00
19526;BME280;9907;42.676;26.348;2023-03-05T03:40:30;98418.81;;;5.31;100.00
19526;BME280;9907;42.676;26.348;2023-03-05T03:42:56;98417.63;;;5.35;100.00
19526;BME280;9907;42.676;26.348;2023-03-05T03:45:21;98434.72;;;5.42;100.00
19526;BME280;9907;42.676;26.348;2023-03-05T03:47:50;98425.56;;;5.35;100.00
19526;BME280;9907;42.676;26.348;2023-03-05T03:50:17;98425.31;;;5.27;100.00
19526;BME280;9907;42.676;26.348;2023-03-05T03:52:43;98425.91;;;5.19;100.00
19526;BME280;9907;42.676;26.348;2023-03-05T03:55:09;98420.38;;;5.33;100.00
19526;BME280;9907;42.676;26.348;2023-03-05T03:57:37;98418.47;;;5.47;100.00
19526;BME280;9907;42.676;26.348;2023-03-05T04:00:04;98414.72;;;5.49;100.00
19526;BME280;9907;42.676;26.348;2023-03-05T04:02:42;98420.25;;;5.46;100.00
19526;BME280;9907;42.676;26.348;2023-03-05T04:05:08;98420.13;;;5.48;100.00
19526;BME280;9907;42.676;26.348;2023-03-05T04:07:33;98420.50;;;5.54;100.00
19526;BME280;9907;42.676;26.348;2023-03-05T04:09:59;98419.66;;;5.43;100.00
19526;BME280;9907;42.676;26.348;2023-03-05T04:12:24;98423.97;;;5.44;100.00
19526;BME280;9907;42.676;26.348;2023-03-05T04:14:50;98420.03;;;5.49;100.00
19526;BME280;9907;42.676;26.348;2023-03-05T04:17:16;98424.72;;;5.46;100.00
19526;BME280;9907;42.676;26.348;2023-03-05T04:19:41;98423.88;;;5.34;100.00
19526;BME280;9907;42.676;26.348;2023-03-05T04:22:11;98435.66;;;5.41;100.00
19526;BME280;9907;42.676;26.348;2023-03-05T04:24:37;98430.25;;;5.43;100.00
19526;BME280;9907;42.676;26.348;2023-03-05T04:27:04;98444.56;;;5.40;100.00
19526;BME280;9907;42.676;26.348;2023-03-05T04:29:29;98447.78;;;5.21;100.00
19526;BME280;9907;42.676;26.348;2023-03-05T04:31:55;98442.03;;;5.27;100.00
19526;BME280;9907;42.676;26.348;2023-03-05T04:34:21;98443.38;;;5.44;100.00
19526;BME280;9907;42.676;26.348;2023-03-05T04:36:46;98439.28;;;5.51;100.00
19526;BME280;9907;42.676;26.348;2023-03-05T04:39:11;98444.09;;;5.35;100.00
19526;BME280;9907;42.676;26.348;2023-03-05T04:41:37;98446.50;;;5.27;100.00
19526;BME280;9907;42.676;26.348;2023-03-05T04:44:03;98449.41;;;5.35;100.00
19526;BME280;9907;42.676;26.348;2023-03-05T04:46:31;98453.97;;;5.44;100.00
19526;BME280;9907;42.676;26.348;2023-03-05T04:48:57;98445.53;;;5.28;100.00
19526;BME280;9907;42.676;26.348;2023-03-05T04:51:23;98456.72;;;5.31;100.00
19526;BME280;9907;42.676;26.348;2023-03-05T04:53:48;98453.09;;;5.44;100.00
19526;BME280;9907;42.676;26.348;2023-03-05T04:56:14;98464.69;;;5.31;100.00
19526;BME280;9907;42.676;26.348;2023-03-05T04:58:39;98477.31;;;5.28;100.00
19526;BME280;9907;42.676;26.348;2023-03-05T05:01:05;98481.41;;;5.21;100.00
19526;BME280;9907;42.676;26.348;2023-03-05T05:03:32;98472.59;;;5.20;100.00
19526;BME280;9907;42.676;26.348;2023-03-05T05:05:58;98466.22;;;5.23;100.00
19526;BME280;9907;42.676;26.348;2023-03-05T05:08:24;98465.38;;;5.22;100.00
19526;BME280;9907;42.676;26.348;2023-03-05T05:10:58;98469.81;;;5.11;100.00
19526;BME280;9907;42.676;26.348;2023-03-05T05:13:25;98477.50;;;5.14;100.00
19526;BME280;9907;42.676;26.348;2023-03-05T05:15:50;98484.44;;;4.93;100.00
19526;BME280;9907;42.676;26.348;2023-03-05T05:18:19;98486.75;;;4.97;100.00
19526;BME280;9907;42.676;26.348;2023-03-05T05:20:45;98484.97;;;5.09;100.00
19526;BME280;9907;42.676;26.348;2023-03-05T05:23:11;98489.47;;;5.30;100.00
19526;BME280;9907;42.676;26.348;2023-03-05T05:25:37;98485.88;;;5.31;100.00
19526;BME280;9907;42.676;26.348;2023-03-05T05:28:02;98494.38;;;5.13;100.00
19526;BME280;9907;42.676;26.348;2023-03-05T05:30:28;98489.53;;;5.18;100.00
19526;BME280;9907;42.676;26.348;2023-03-05T05:32:53;98495.44;;;5.21;100.00
19526;BME280;9907;42.676;26.348;2023-03-05T05:35:19;98498.72;;;5.25;100.00
19526;BME280;9907;42.676;26.348;2023-03-05T05:37:44;98501.50;;;5.34;100.00
19526;BME280;9907;42.676;26.348;2023-03-05T05:40:10;98511.25;;;5.34;100.00
19526;BME280;9907;42.676;26.348;2023-03-05T05:42:36;98505.28;;;5.43;100.00
19526;BME280;9907;42.676;26.348;2023-03-05T05:45:02;98505.03;;;5.57;100.00
19526;BME280;9907;42.676;26.348;2023-03-05T05:47:28;98510.81;;;5.62;100.00
19526;BME280;9907;42.676;26.348;2023-03-05T05:49:54;98504.22;;;5.79;100.00
19526;BME280;9907;42.676;26.348;2023-03-05T05:52:20;98508.31;;;5.83;100.00
19526;BME280;9907;42.676;26.348;2023-03-05T05:54:45;98509.03;;;5.96;100.00
19526;BME280;9907;42.676;26.348;2023-03-05T05:57:11;98512.91;;;5.92;100.00
19526;BME280;9907;42.676;26.348;2023-03-05T05:59:37;98510.13;;;5.94;100.00
19526;BME280;9907;42.676;26.348;2023-03-05T06:02:03;98510.38;;;6.02;100.00
19526;BME280;9907;42.676;26.348;2023-03-05T06:04:29;98505.53;;;6.07;100.00
19526;BME280;9907;42.676;26.348;2023-03-05T06:06:54;98513.88;;;6.02;100.00
19526;BME280;9907;42.676;26.348;2023-03-05T06:09:23;98513.03;;;6.13;100.00
19526;BME280;9907;42.676;26.348;2023-03-05T06:11:48;98516.38;;;6.15;100.00
19526;BME280;9907;42.676;26.348;2023-03-05T06:14:14;98510.72;;;6.19;100.00
19526;BME280;9907;42.676;26.348;2023-03-05T06:16:40;98509.50;;;6.23;100.00
19526;BME280;9907;42.676;26.348;2023-03-05T06:19:05;98510.81;;;6.29;100.00
19526;BME280;9907;42.676;26.348;2023-03-05T06:21:31;98494.25;;;6.48;100.00
19526;BME280;9907;42.676;26.348;2023-03-05T06:23:57;98501.78;;;6.74;100.00
19526;BME280;9907;42.676;26.348;2023-03-05T06:26:24;98501.22;;;6.60;100.00
19526;BME280;9907;42.676;26.348;2023-03-05T06:28:50;98500.41;;;6.48;100.00
19526;BME280;9907;42.676;26.348;2023-03-05T06:31:19;98499.66;;;6.57;100.00
19526;BME280;9907;42.676;26.348;2023-03-05T06:33:49;98491.53;;;7.02;100.00
19526;BME280;9907;42.676;26.348;2023-03-05T06:36:16;98493.88;;;6.84;100.00
19526;BME280;9907;42.676;26.348;2023-03-05T06:38:42;98498.97;;;6.87;100.00
19526;BME280;9907;42.676;26.348;2023-03-05T06:41:14;98490.09;;;6.98;100.00
19526;BME280;9907;42.676;26.348;2023-03-05T06:43:43;98489.50;;;7.15;100.00
19526;BME280;9907;42.676;26.348;2023-03-05T06:46:16;98478.97;;;7.55;100.00
19526;BME280;9907;42.676;26.348;2023-03-05T06:48:43;98480.06;;;7.73;100.00
19526;BME280;9907;42.676;26.348;2023-03-05T06:51:29;98485.19;;;7.95;100.00
19526;BME280;9907;42.676;26.348;2023-03-05T06:53:59;98481.97;;;8.31;100.00
19526;BME280;9907;42.676;26.348;2023-03-05T06:56:25;98477.28;;;8.64;100.00
19526;BME280;9907;42.676;26.348;2023-03-05T06:58:51;98476.84;;;8.88;100.00
19526;BME280;9907;42.676;26.348;2023-03-05T07:01:17;98467.44;;;9.03;95.98
19526;BME280;9907;42.676;26.348;2023-03-05T07:03:43;98474.47;;;9.23;92.30
19526;BME280;9907;42.676;26.348;2023-03-05T07:06:12;98468.59;;;9.66;84.45
19526;BME280;9907;42.676;26.348;2023-03-05T07:08:38;98463.75;;;9.89;81.57
19526;BME280;9907;42.676;26.348;2023-03-05T07:11:30;98461.91;;;10.26;79.92
19526;BME280;9907;42.676;26.348;2023-03-05T07:13:56;98455.47;;;10.19;87.89
19526;BME280;9907;42.676;26.348;2023-03-05T07:16:26;98458.47;;;10.16;81.08
19526;BME280;9907;42.676;26.348;2023-03-05T07:18:53;98446.75;;;10.44;81.43
19526;BME280;9907;42.676;26.348;2023-03-05T07:21:23;98450.94;;;10.64;80.18
19526;BME280;9907;42.676;26.348;2023-03-05T07:23:53;98455.09;;;10.77;82.27
19526;BME280;9907;42.676;26.348;2023-03-05T07:26:19;98445.63;;;10.82;78.44
19526;BME280;9907;42.676;26.348;2023-03-05T07:28:44;98444.56;;;10.93;81.14
19526;BME280;9907;42.676;26.348;2023-03-05T07:31:12;98439.28;;;11.01;78.40
19526;BME280;9907;42.676;26.348;2023-03-05T07:33:38;98436.22;;;10.96;74.60
19526;BME280;9907;42.676;26.348;2023-03-05T07:36:07;98434.47;;;11.04;74.17
19526;BME280;9907;42.676;26.348;2023-03-05T07:38:33;98430.56;;;10.99;70.79
19526;BME280;9907;42.676;26.348;2023-03-05T07:41:07;98433.63;;;11.04;74.06
19526;BME280;9907;42.676;26.348;2023-03-05T07:43:33;98422.25;;;11.28;74.36
19526;BME280;9907;42.676;26.348;2023-03-05T07:45:58;98419.50;;;11.37;70.54
19526;BME280;9907;42.676;26.348;2023-03-05T07:48:24;98424.66;;;11.56;68.47
19526;BME280;9907;42.676;26.348;2023-03-05T07:51:08;98423.06;;;11.71;64.56
19526;BME280;9907;42.676;26.348;2023-03-05T07:53:35;98420.34;;;11.89;64.54
19526;BME280;9907;42.676;26.348;2023-03-05T07:56:00;98414.13;;;11.89;64.62
19526;BME280;9907;42.676;26.348;2023-03-05T07:58:26;98407.91;;;11.80;65.27
19526;BME280;9907;42.676;26.348;2023-03-05T08:00:51;98404.78;;;11.93;65.59
19526;BME280;9907;42.676;26.348;2023-03-05T08:03:17;98407.66;;;11.99;61.59
19526;BME280;9907;42.676;26.348;2023-03-05T08:05:43;98398.25;;;11.95;62.94
19526;BME280;9907;42.676;26.348;2023-03-05T08:08:12;98398.25;;;11.95;62.89
19526;BME280;9907;42.676;26.348;2023-03-05T08:10:37;98398.59;;;11.92;61.61
19526;BME280;9907;42.676;26.348;2023-03-05T08:13:06;98391.66;;;12.24;59.93
19526;BME280;9907;42.676;26.348;2023-03-05T08:15:31;98380.78;;;12.17;58.39
19526;BME280;9907;42.676;26.348;2023-03-05T08:17:58;98384.25;;;12.09;60.83
19526;BME280;9907;42.676;26.348;2023-03-05T08:20:23;98379.28;;;12.23;60.89
19526;BME280;9907;42.676;26.348;2023-03-05T08:22:49;98364.94;;;12.48;67.18
19526;BME280;9907;42.676;26.348;2023-03-05T08:25:15;98368.75;;;12.45;68.31
19526;BME280;9907;42.676;26.348;2023-03-05T08:27:45;98364.13;;;12.63;65.86
19526;BME280;9907;42.676;26.348;2023-03-05T08:30:14;98357.41;;;12.84;65.99
19526;BME280;9907;42.676;26.348;2023-03-05T08:32:40;98357.06;;;12.79;69.88
19526;BME280;9907;42.676;26.348;2023-03-05T08:35:06;98357.41;;;12.51;71.15
19526;BME280;9907;42.676;26.348;2023-03-05T08:37:32;98356.41;;;12.60;70.58
19526;BME280;9907;42.676;26.348;2023-03-05T08:39:58;98353.22;;;12.73;72.08
19526;BME280;9907;42.676;26.348;2023-03-05T08:42:24;98359.75;;;13.03;70.61
19526;BME280;9907;42.676;26.348;2023-03-05T08:44:50;98353.06;;;13.07;68.44
19526;BME280;9907;42.676;26.348;2023-03-05T08:47:15;98356.06;;;13.28;67.67
19526;BME280;9907;42.676;26.348;2023-03-05T08:49:42;98360.78;;;13.18;68.87
19526;BME280;9907;42.676;26.348;2023-03-05T08:52:07;98354.91;;;13.14;69.20
19526;BME280;9907;42.676;26.348;2023-03-05T08:54:33;98354.06;;;12.74;70.90
19526;BME280;9907;42.676;26.348;2023-03-05T08:57:00;98348.50;;;13.32;68.78
19526;BME280;9907;42.676;26.348;2023-03-05T08:59:25;98350.72;;;13.04;67.02
19526;BME280;9907;42.676;26.348;2023-03-05T09:01:51;98356.56;;;12.99;67.77
19526;BME280;9907;42.676;26.348;2023-03-05T09:04:16;98355.41;;;13.18;67.88
19526;BME280;9907;42.676;26.348;2023-03-05T09:06:42;98353.84;;;13.40;66.70
19526;BME280;9907;42.676;26.348;2023-03-05T09:09:08;98349.91;;;13.67;66.38
19526;BME280;9907;42.676;26.348;2023-03-05T09:11:34;98347.88;;;13.69;65.81
19526;BME280;9907;42.676;26.348;2023-03-05T09:14:05;98341.75;;;13.52;66.29
19526;BME280;9907;42.676;26.348;2023-03-05T09:16:31;98342.59;;;13.52;65.57
19526;BME280;9907;42.676;26.348;2023-03-05T09:18:58;98345.19;;;13.77;67.26
19526;BME280;9907;42.676;26.348;2023-03-05T09:21:24;98345.19;;;13.77;66.81
19526;BME280;9907;42.676;26.348;2023-03-05T09:23:50;98343.78;;;13.89;68.05
19526;BME280;9907;42.676;26.348;2023-03-05T09:26:16;98343.69;;;14.05;66.17
19526;BME280;9907;42.676;26.348;2023-03-05T09:28:43;98349.53;;;13.78;64.88
19526;BME280;9907;42.676;26.348;2023-03-05T09:31:09;98349.16;;;13.89;64.78
19526;BME280;9907;42.676;26.348;2023-03-05T09:33:35;98349.34;;;13.79;63.54
19526;BME280;9907;42.676;26.348;2023-03-05T09:36:02;98352.91;;;13.72;63.87
19526;BME280;9907;42.676;26.348;2023-03-05T09:38:28;98350.09;;;14.04;62.37
19526;BME280;9907;42.676;26.348;2023-03-05T09:43:52;98345.22;;;14.07;61.31
19526;BME280;9907;42.676;26.348;2023-03-05T09:46:47;98344.34;;;13.76;59.80
19526;BME280;9907;42.676;26.348;2023-03-05T09:51:51;98356.00;;;13.52;59.59
19526;BME280;9907;42.676;26.348;2023-03-05T09:54:34;98350.16;;;13.41;59.97
19526;BME280;9907;42.676;26.348;2023-03-05T09:57:04;98335.56;;;13.43;59.24
19526;BME280;9907;42.676;26.348;2023-03-05T09:59:50;98337.63;;;13.33;59.18
19526;BME280;9907;42.676;26.348;2023-03-05T10:02:29;98329.19;;;13.52;57.10
19526;BME280;9907;42.676;26.348;2023-03-05T10:05:03;98331.31;;;13.57;58.32
19526;BME280;9907;42.676;26.348;2023-03-05T10:07:39;98338.03;;;13.53;57.34
19526;BME280;9907;42.676;26.348;2023-03-05T10:10:25;98335.19;;;13.54;57.81
19526;BME280;9907;42.676;26.348;2023-03-05T10:12:55;98325.06;;;13.26;59.74
19526;BME280;9907;42.676;26.348;2023-03-05T10:16:17;98315.19;;;13.10;59.92
19526;BME280;9907;42.676;26.348;2023-03-05T10:18:29;98310.50;;;13.04;59.01
19526;BME280;9907;42.676;26.348;2023-03-05T10:23:50;98310.59;;;13.43;58.55
19526;BME280;9907;42.676;26.348;2023-03-05T10:50:43;98249.66;;;13.12;60.20
19526;BME280;9907;42.676;26.348;2023-03-05T10:53:28;98243.31;;;13.13;60.12
19526;BME280;9907;42.676;26.348;2023-03-05T10:56:00;98242.09;;;13.16;59.97
19526;BME280;9907;42.676;26.348;2023-03-05T10:58:27;98233.41;;;13.14;59.71
19526;BME280;9907;42.676;26.348;2023-03-05T11:01:04;98230.88;;;13.04;59.72
19526;BME280;9907;42.676;26.348;2023-03-05T11:04:03;98237.09;;;13.05;59.17
19526;BME280;9907;42.676;26.348;2023-03-05T11:06:39;98224.53;;;13.13;59.98
19526;BME280;9907;42.676;26.348;2023-03-05T11:11:44;98227.91;;;12.99;60.11
19526;BME280;9907;42.676;26.348;2023-03-05T11:14:25;98216.69;;;12.96;61.55
19526;BME280;9907;42.676;26.348;2023-03-05T11:16:55;98228.56;;;13.01;60.30
19526;BME280;9907;42.676;26.348;2023-03-05T11:24:35;98212.47;;;13.01;59.36
19526;BME280;9907;42.676;26.348;2023-03-05T11:27:02;98206.47;;;12.99;61.31
19526;BME280;9907;42.676;26.348;2023-03-05T11:29:48;98206.94;;;13.03;60.84
19526;BME280;9907;42.676;26.348;2023-03-05T11:32:19;98214.53;;;12.83;60.66
19526;BME280;9907;42.676;26.348;2023-03-05T11:34:45;98205.66;;;12.83;60.85
19526;BME280;9907;42.676;26.348;2023-03-05T11:37:21;98203.53;;;12.62;62.02
19526;BME280;9907;42.676;26.348;2023-03-05T11:39:48;98208.72;;;12.63;62.47
19526;BME280;9907;42.676;26.348;2023-03-05T11:42:29;98207.34;;;12.67;60.18
19526;BME280;9907;42.676;26.348;2023-03-05T11:44:56;98208.69;;;12.72;60.73
19526;BME280;9907;42.676;26.348;2023-03-05T11:47:38;98203.81;;;12.83;60.55
19526;BME280;9907;42.676;26.348;2023-03-05T11:50:42;98206.06;;;12.63;60.58
19526;BME280;9907;42.676;26.348;2023-03-05T11:53:18;98213.06;;;12.64;61.67
19526;BME280;9907;42.676;26.348;2023-03-05T11:55:55;98207.53;;;12.66;60.88
19526;BME280;9907;42.676;26.348;2023-03-05T11:58:42;98201.00;;;12.60;60.15
19526;BME280;9907;42.676;26.348;2023-03-05T12:01:21;98196.34;;;12.62;61.50
19526;BME280;9907;42.676;26.348;2023-03-05T12:03:48;98199.38;;;12.59;62.10
19526;BME280;9907;42.676;26.348;2023-03-05T12:06:21;98190.13;;;12.62;61.34
19526;BME280;9907;42.676;26.348;2023-03-05T12:08:54;98192.00;;;12.45;61.29
19526;BME280;9907;42.676;26.348;2023-03-05T12:11:29;98183.66;;;12.40;61.65
19526;BME280;9907;42.676;26.348;2023-03-05T12:14:00;98184.66;;;12.39;61.64
19526;BME280;9907;42.676;26.348;2023-03-05T12:16:32;98176.44;;;12.49;61.22
19526;BME280;9907;42.676;26.348;2023-03-05T12:19:24;98176.94;;;12.52;61.57
19526;BME280;9907;42.676;26.348;2023-03-05T12:21:55;98179.97;;;12.41;61.34
19526;BME280;9907;42.676;26.348;2023-03-05T12:32:04;98155.03;;;12.49;60.20
19526;BME280;9907;42.676;26.348;2023-03-05T12:37:10;98153.00;;;12.43;59.45
19526;BME280;9907;42.676;26.348;2023-03-05T12:39:46;98149.94;;;12.62;58.98
19526;BME280;9907;42.676;26.348;2023-03-05T12:45:22;98143.78;;;12.53;58.81
19526;BME280;9907;42.676;26.348;2023-03-05T12:52:58;98138.41;;;12.61;57.38
19526;BME280;9907;42.676;26.348;2023-03-05T12:58:19;98131.22;;;12.54;56.22
19526;BME280;9907;42.676;26.348;2023-03-05T13:00:52;98130.38;;;12.53;55.51
19526;BME280;9907;42.676;26.348;2023-03-05T13:03:24;98124.53;;;12.42;54.87
19526;BME280;9907;42.676;26.348;2023-03-05T13:05:55;98125.22;;;12.36;55.32
19526;BME280;9907;42.676;26.348;2023-03-05T13:08:29;98132.28;;;12.37;54.72
19526;BME280;9907;42.676;26.348;2023-03-05T13:11:16;98125.56;;;12.41;55.73
19526;BME280;9907;42.676;26.348;2023-03-05T13:13:44;98114.03;;;12.40;55.45
19526;BME280;9907;42.676;26.348;2023-03-05T13:16:19;98118.66;;;12.54;56.60
19526;BME280;9907;42.676;26.348;2023-03-05T13:18:48;98112.16;;;12.49;56.39
19526;BME280;9907;42.676;26.348;2023-03-05T13:21:16;98117.34;;;12.42;55.09
19526;BME280;9907;42.676;26.348;2023-03-05T13:23:47;98112.19;;;12.41;55.31
19526;BME280;9907;42.676;26.348;2023-03-05T13:26:15;98100.63;;;12.48;55.87
19526;BME280;9907;42.676;26.348;2023-03-05T13:28:43;98105.41;;;12.61;54.83
19526;BME280;9907;42.676;26.348;2023-03-05T13:31:19;98103.03;;;12.74;55.51
19526;BME280;9907;42.676;26.348;2023-03-05T13:33:56;98095.34;;;12.71;55.56
19526;BME280;9907;42.676;26.348;2023-03-05T13:36:24;98095.53;;;12.61;53.95
19526;BME280;9907;42.676;26.348;2023-03-05T13:38:50;98095.88;;;12.66;53.54
19526;BME280;9907;42.676;26.348;2023-03-05T13:41:25;98087.16;;;12.64;53.61
19526;BME280;9907;42.676;26.348;2023-03-05T13:43:52;98088.78;;;12.74;53.63
19526;BME280;9907;42.676;26.348;2023-03-05T13:48:52;98089.78;;;12.73;53.17
19526;BME280;9907;42.676;26.348;2023-03-05T13:51:18;98090.50;;;12.66;51.25
19526;BME280;9907;42.676;26.348;2023-03-05T13:53:44;98083.13;;;12.68;50.74
19526;BME280;9907;42.676;26.348;2023-03-05T13:56:18;98088.00;;;12.57;49.31
19526;BME280;9907;42.676;26.348;2023-03-05T13:58:45;98083.50;;;12.57;50.04
19526;BME280;9907;42.676;26.348;2023-03-05T14:07:02;98077.91;;;12.20;48.95
19526;BME280;9907;42.676;26.348;2023-03-05T14:12:27;98067.31;;;12.35;49.07
19526;BME280;9907;42.676;26.348;2023-03-05T14:15:03;98062.66;;;12.29;49.00
19526;BME280;9907;42.676;26.348;2023-03-05T14:17:41;98061.81;;;12.28;48.72
19526;BME280;9907;42.676;26.348;2023-03-05T14:20:20;98055.50;;;12.21;48.94
19526;BME280;9907;42.676;26.348;2023-03-05T14:22:49;98056.66;;;12.27;49.35
19526;BME280;9907;42.676;26.348;2023-03-05T14:28:04;98041.09;;;12.22;48.66
19526;BME280;9907;42.676;26.348;2023-03-05T14:30:31;98038.06;;;12.25;48.88
19526;BME280;9907;42.676;26.348;2023-03-05T14:32:59;98041.03;;;12.38;49.15